sensor_id;sensor_type;location;lat;lon;timestamp;pressure;altitude;pressure_sealevel;temperature;humidity
10688;BME280;5392;42.688;23.298;2023-03-15T00:00:10;57342.47;;;-144.48;77.62
10688;BME280;5392;42.688;23.298;2023-03-15T00:02:38;57319.50;;;-144.48;77.97
10688;BME280;5392;42.688;23.298;2023-03-15T00:05:05;57384.19;;;-144.48;78.69
10688;BME280;5392;42.688;23.298;2023-03-15T00:07:32;57361.25;;;-144.48;78.92
10688;BME280;5392;42.688;23.298;2023-03-15T00:09:59;57359.16;;;-144.48;77.68
10688;BME280;5392;42.688;23.298;2023-03-15T00:12:27;57350.81;;;-144.48;77.87
10688;BME280;5392;42.688;23.298;2023-03-15T00:14:53;57350.81;;;-144.48;78.98
10688;BME280;5392;42.688;23.298;2023-03-15T00:17:20;57336.19;;;-144.48;78.64
10688;BME280;5392;42.688;23.298;2023-03-15T00:19:48;57350.81;;;-144.48;78.06
10688;BME280;5392;42.688;23.298;2023-03-15T00:22:15;57344.53;;;-144.48;78.33
10688;BME280;5392;42.688;23.298;2023-03-15T00:24:42;57359.16;;;-144.48;78.22
10688;BME280;5392;42.688;23.298;2023-03-15T00:27:09;57363.31;;;-144.48;77.31
10688;BME280;5392;42.688;23.298;2023-03-15T00:29:36;57382.13;;;-144.48;77.52
10688;BME280;5392;42.688;23.298;2023-03-15T00:32:02;57352.91;;;-144.48;76.84
10688;BME280;5392;42.688;23.298;2023-03-15T00:34:31;57315.31;;;-144.48;76.61
10688;BME280;5392;42.688;23.298;2023-03-15T00:36:59;57329.94;;;-144.48;76.95
10688;BME280;5392;42.688;23.298;2023-03-15T00:39:26;57329.94;;;-144.48;77.27
10688;BME280;5392;42.688;23.298;2023-03-15T00:41:53;57342.47;;;-144.48;77.71
10688;BME280;5392;42.688;23.298;2023-03-15T00:44:23;57302.81;;;-144.48;78.13
10688;BME280;5392;42.688;23.298;2023-03-15T00:46:49;57346.63;;;-144.48;78.87
10688;BME280;5392;42.688;23.298;2023-03-15T00:49:16;57354.97;;;-144.48;78.27
10688;BME280;5392;42.688;23.298;2023-03-15T00:51:43;57317.41;;;-144.48;78.14
10688;BME280;5392;42.688;23.298;2023-03-15T00:54:10;57346.63;;;-144.48;77.84
10688;BME280;5392;42.688;23.298;2023-03-15T00:56:39;57369.59;;;-144.48;77.51
10688;BME280;5392;42.688;23.298;2023-03-15T00:59:06;57317.41;;;-144.48;77.58
10688;BME280;5392;42.688;23.298;2023-03-15T01:01:34;57317.41;;;-144.48;78.06
10688;BME280;5392;42.688;23.298;2023-03-15T01:04:00;57359.16;;;-144.48;77.75
10688;BME280;5392;42.688;23.298;2023-03-15T01:06:28;57346.63;;;-144.48;77.25
10688;BME280;5392;42.688;23.298;2023-03-15T01:08:55;57346.63;;;-144.48;77.44
10688;BME280;5392;42.688;23.298;2023-03-15T01:11:25;57336.19;;;-144.48;77.64
10688;BME280;5392;42.688;23.298;2023-03-15T01:13:53;57375.84;;;-144.48;77.26
10688;BME280;5392;42.688;23.298;2023-03-15T01:16:21;57317.41;;;-144.48;77.75
10688;BME280;5392;42.688;23.298;2023-03-15T01:18:48;57373.75;;;-144.48;77.41
10688;BME280;5392;42.688;23.298;2023-03-15T01:21:17;57367.50;;;-144.48;77.07
10688;BME280;5392;42.688;23.298;2023-03-15T01:23:44;57359.16;;;-144.48;77.84
10688;BME280;5392;42.688;23.298;2023-03-15T01:26:14;57338.28;;;-144.48;78.07
10688;BME280;5392;42.688;23.298;2023-03-15T01:28:40;57302.81;;;-144.48;78.44
10688;BME280;5392;42.688;23.298;2023-03-15T01:31:36;57375.84;;;-144.48;78.12
10688;BME280;5392;42.688;23.298;2023-03-15T01:34:04;57359.16;;;-144.48;78.25
10688;BME280;5392;42.688;23.298;2023-03-15T01:36:30;57359.16;;;-144.48;78.16
10688;BME280;5392;42.688;23.298;2023-03-15T01:38:57;57354.97;;;-144.48;78.18
10688;BME280;5392;42.688;23.298;2023-03-15T01:41:23;57302.81;;;-144.48;78.55
10688;BME280;5392;42.688;23.298;2023-03-15T01:43:51;57365.41;;;-144.48;78.71
10688;BME280;5392;42.688;23.298;2023-03-15T01:49:01;57319.50;;;-144.48;81.13
10688;BME280;5392;42.688;23.298;2023-03-15T01:56:41;57329.94;;;-144.48;82.16
10688;BME280;5392;42.688;23.298;2023-03-15T01:59:16;57332.03;;;-144.48;81.65
10688;BME280;5392;42.688;23.298;2023-03-15T02:01:46;57352.91;;;-144.48;81.92
10688;BME280;5392;42.688;23.298;2023-03-15T02:04:22;57329.94;;;-144.48;81.81
10688;BME280;5392;42.688;23.298;2023-03-15T02:06:52;57338.28;;;-144.48;82.43
10688;BME280;5392;42.688;23.298;2023-03-15T02:09:34;57357.06;;;-144.48;83.38
10688;BME280;5392;42.688;23.298;2023-03-15T02:12:03;57336.19;;;-144.48;83.38
10688;BME280;5392;42.688;23.298;2023-03-15T02:14:31;57329.94;;;-144.48;82.05
10688;BME280;5392;42.688;23.298;2023-03-15T02:16:58;57344.53;;;-144.48;82.14
10688;BME280;5392;42.688;23.298;2023-03-15T02:19:36;57334.09;;;-144.48;81.99
10688;BME280;5392;42.688;23.298;2023-03-15T02:23:19;57342.47;;;-144.48;81.15
10688;BME280;5392;42.688;23.298;2023-03-15T02:28:00;57334.09;;;-144.48;82.33
10688;BME280;5392;42.688;23.298;2023-03-15T02:30:27;57384.19;;;-144.48;83.19
10688;BME280;5392;42.688;23.298;2023-03-15T02:32:54;57354.97;;;-144.48;84.77
10688;BME280;5392;42.688;23.298;2023-03-15T02:35:27;57342.47;;;-144.48;84.09
10688;BME280;5392;42.688;23.298;2023-03-15T02:37:54;57342.47;;;-144.48;83.32
10688;BME280;5392;42.688;23.298;2023-03-15T02:40:23;57350.81;;;-144.48;83.44
10688;BME280;5392;42.688;23.298;2023-03-15T02:42:52;57348.72;;;-144.48;83.37
10688;BME280;5392;42.688;23.298;2023-03-15T02:45:21;57346.63;;;-144.48;82.66
10688;BME280;5392;42.688;23.298;2023-03-15T02:47:49;57336.19;;;-144.48;81.18
10688;BME280;5392;42.688;23.298;2023-03-15T02:50:16;57348.72;;;-144.48;81.83
10688;BME280;5392;42.688;23.298;2023-03-15T02:52:43;57367.50;;;-144.48;82.74
10688;BME280;5392;42.688;23.298;2023-03-15T02:55:10;57281.94;;;-144.48;83.73
10688;BME280;5392;42.688;23.298;2023-03-15T02:57:37;57346.63;;;-144.48;83.50
10688;BME280;5392;42.688;23.298;2023-03-15T03:00:05;57319.50;;;-144.48;84.01
10688;BME280;5392;42.688;23.298;2023-03-15T03:02:40;57342.47;;;-144.48;84.58
10688;BME280;5392;42.688;23.298;2023-03-15T03:05:08;57369.59;;;-144.48;84.55
10688;BME280;5392;42.688;23.298;2023-03-15T03:07:35;57317.41;;;-144.48;84.46
10688;BME280;5392;42.688;23.298;2023-03-15T03:10:03;57342.47;;;-144.48;82.43
10688;BME280;5392;42.688;23.298;2023-03-15T03:12:31;57371.69;;;-144.48;82.20
10688;BME280;5392;42.688;23.298;2023-03-15T03:14:58;57367.50;;;-144.48;82.87
10688;BME280;5392;42.688;23.298;2023-03-15T03:17:25;57369.59;;;-144.48;82.51
10688;BME280;5392;42.688;23.298;2023-03-15T03:19:51;57359.16;;;-144.48;82.73
10688;BME280;5392;42.688;23.298;2023-03-15T03:22:18;57319.50;;;-144.48;82.61
10688;BME280;5392;42.688;23.298;2023-03-15T03:24:45;57367.50;;;-144.48;82.75
10688;BME280;5392;42.688;23.298;2023-03-15T03:27:12;57359.16;;;-144.48;82.61
10688;BME280;5392;42.688;23.298;2023-03-15T03:29:40;57332.03;;;-144.48;80.04
10688;BME280;5392;42.688;23.298;2023-03-15T03:32:07;57348.72;;;-144.48;80.13
10688;BME280;5392;42.688;23.298;2023-03-15T03:34:35;57338.28;;;-144.48;75.46
10688;BME280;5392;42.688;23.298;2023-03-15T03:37:01;57348.72;;;-144.48;72.74
10688;BME280;5392;42.688;23.298;2023-03-15T03:39:28;57354.97;;;-144.48;73.04
10688;BME280;5392;42.688;23.298;2023-03-15T03:41:55;57373.75;;;-144.48;73.59
10688;BME280;5392;42.688;23.298;2023-03-15T03:44:22;57340.38;;;-144.48;73.07
10688;BME280;5392;42.688;23.298;2023-03-15T03:46:48;57377.94;;;-144.48;72.70
10688;BME280;5392;42.688;23.298;2023-03-15T03:49:15;57306.97;;;-144.48;72.96
10688;BME280;5392;42.688;23.298;2023-03-15T03:51:41;57313.22;;;-144.48;73.61
10688;BME280;5392;42.688;23.298;2023-03-15T03:54:08;57338.28;;;-144.48;72.54
10688;BME280;5392;42.688;23.298;2023-03-15T03:56:35;57340.38;;;-144.48;72.88
10688;BME280;5392;42.688;23.298;2023-03-15T03:59:01;57329.94;;;-144.48;74.94
10688;BME280;5392;42.688;23.298;2023-03-15T04:01:28;57342.47;;;-144.48;78.00
10688;BME280;5392;42.688;23.298;2023-03-15T04:03:55;57311.16;;;-144.48;78.89
10688;BME280;5392;42.688;23.298;2023-03-15T04:06:22;57325.75;;;-144.48;79.24
10688;BME280;5392;42.688;23.298;2023-03-15T04:08:48;57338.28;;;-144.48;79.39
10688;BME280;5392;42.688;23.298;2023-03-15T04:11:15;57365.41;;;-144.48;81.12
10688;BME280;5392;42.688;23.298;2023-03-15T04:13:43;57350.81;;;-144.48;81.10
10688;BME280;5392;42.688;23.298;2023-03-15T04:16:12;57365.41;;;-144.48;79.99
10688;BME280;5392;42.688;23.298;2023-03-15T04:18:40;57334.09;;;-144.48;80.29
10688;BME280;5392;42.688;23.298;2023-03-15T04:21:06;57350.81;;;-144.48;79.92
10688;BME280;5392;42.688;23.298;2023-03-15T04:23:36;57359.16;;;-144.48;79.14
10688;BME280;5392;42.688;23.298;2023-03-15T04:26:04;57340.38;;;-144.48;82.28
10688;BME280;5392;42.688;23.298;2023-03-15T04:28:33;57317.41;;;-144.48;82.77
10688;BME280;5392;42.688;23.298;2023-03-15T04:31:03;57338.28;;;-144.48;82.98
10688;BME280;5392;42.688;23.298;2023-03-15T04:33:30;57342.47;;;-144.48;82.93
10688;BME280;5392;42.688;23.298;2023-03-15T04:35:57;57317.41;;;-144.48;83.27
10688;BME280;5392;42.688;23.298;2023-03-15T04:38:24;57346.63;;;-144.48;84.62
10688;BME280;5392;42.688;23.298;2023-03-15T04:40:53;57361.25;;;-144.48;85.64
10688;BME280;5392;42.688;23.298;2023-03-15T04:43:20;57344.53;;;-144.48;84.70
10688;BME280;5392;42.688;23.298;2023-03-15T04:45:49;57317.41;;;-144.48;83.88
10688;BME280;5392;42.688;23.298;2023-03-15T04:48:17;57298.63;;;-144.48;83.92
10688;BME280;5392;42.688;23.298;2023-03-15T04:50:44;57300.72;;;-144.48;84.07
10688;BME280;5392;42.688;23.298;2023-03-15T04:53:10;57363.31;;;-144.48;82.12
10688;BME280;5392;42.688;23.298;2023-03-15T04:55:37;57336.19;;;-144.48;81.33
10688;BME280;5392;42.688;23.298;2023-03-15T04:58:03;57319.50;;;-144.48;82.06
10688;BME280;5392;42.688;23.298;2023-03-15T05:00:30;57390.47;;;-144.48;81.28
10688;BME280;5392;42.688;23.298;2023-03-15T05:02:57;57354.97;;;-144.48;81.62
10688;BME280;5392;42.688;23.298;2023-03-15T05:05:24;57327.84;;;-144.48;82.20
10688;BME280;5392;42.688;23.298;2023-03-15T05:07:50;57367.50;;;-144.48;81.50
10688;BME280;5392;42.688;23.298;2023-03-15T05:10:17;57334.09;;;-144.48;82.79
10688;BME280;5392;42.688;23.298;2023-03-15T05:12:45;57371.69;;;-144.48;78.76
10688;BME280;5392;42.688;23.298;2023-03-15T05:15:11;57373.75;;;-144.48;78.08
10688;BME280;5392;42.688;23.298;2023-03-15T05:17:38;57352.91;;;-144.48;75.00
10688;BME280;5392;42.688;23.298;2023-03-15T05:20:05;57371.69;;;-144.48;70.11
10688;BME280;5392;42.688;23.298;2023-03-15T05:22:37;57325.75;;;-144.48;67.86
10688;BME280;5392;42.688;23.298;2023-03-15T05:25:04;57329.94;;;-144.48;66.98
10688;BME280;5392;42.688;23.298;2023-03-15T05:27:31;57325.75;;;-144.48;67.67
10688;BME280;5392;42.688;23.298;2023-03-15T05:30:00;57350.81;;;-144.48;67.82
10688;BME280;5392;42.688;23.298;2023-03-15T05:32:30;57344.53;;;-144.48;68.17
10688;BME280;5392;42.688;23.298;2023-03-15T05:35:00;57329.94;;;-144.48;68.70
10688;BME280;5392;42.688;23.298;2023-03-15T05:37:27;57367.50;;;-144.48;68.91
10688;BME280;5392;42.688;23.298;2023-03-15T05:39:54;57363.31;;;-144.48;68.95
10688;BME280;5392;42.688;23.298;2023-03-15T05:42:21;57342.47;;;-144.48;69.88
10688;BME280;5392;42.688;23.298;2023-03-15T05:44:52;57357.06;;;-144.48;69.59
10688;BME280;5392;42.688;23.298;2023-03-15T05:47:19;57313.22;;;-144.48;69.79
10688;BME280;5392;42.688;23.298;2023-03-15T05:49:46;57367.50;;;-144.48;70.88
10688;BME280;5392;42.688;23.298;2023-03-15T05:52:14;57354.97;;;-144.48;70.93
10688;BME280;5392;42.688;23.298;2023-03-15T05:54:40;57388.38;;;-144.48;71.58
10688;BME280;5392;42.688;23.298;2023-03-15T05:57:07;57294.44;;;-144.48;71.35
10688;BME280;5392;42.688;23.298;2023-03-15T05:59:35;57342.47;;;-144.48;71.21
10688;BME280;5392;42.688;23.298;2023-03-15T06:02:02;57329.94;;;-144.48;71.26
10688;BME280;5392;42.688;23.298;2023-03-15T06:04:29;57332.03;;;-144.48;70.03
10688;BME280;5392;42.688;23.298;2023-03-15T06:06:56;57319.50;;;-144.48;68.85
10688;BME280;5392;42.688;23.298;2023-03-15T06:09:23;57359.16;;;-144.48;68.37
10688;BME280;5392;42.688;23.298;2023-03-15T06:11:50;57334.09;;;-144.48;67.71
10688;BME280;5392;42.688;23.298;2023-03-15T06:14:17;57352.91;;;-144.48;66.30
10688;BME280;5392;42.688;23.298;2023-03-15T06:16:44;57350.81;;;-144.48;64.01
10688;BME280;5392;42.688;23.298;2023-03-15T06:19:11;57325.75;;;-144.48;62.90
10688;BME280;5392;42.688;23.298;2023-03-15T06:21:37;57350.81;;;-144.48;61.87
10688;BME280;5392;42.688;23.298;2023-03-15T06:24:04;57373.75;;;-144.48;61.88
10688;BME280;5392;42.688;23.298;2023-03-15T06:26:31;57311.16;;;-144.48;62.76
10688;BME280;5392;42.688;23.298;2023-03-15T06:28:58;57329.94;;;-144.48;61.77
10688;BME280;5392;42.688;23.298;2023-03-15T06:31:25;57327.84;;;-144.48;62.10
10688;BME280;5392;42.688;23.298;2023-03-15T06:33:51;57300.72;;;-144.48;63.20
10688;BME280;5392;42.688;23.298;2023-03-15T06:36:18;57325.75;;;-144.48;63.20
10688;BME280;5392;42.688;23.298;2023-03-15T06:38:45;57344.53;;;-144.48;61.75
10688;BME280;5392;42.688;23.298;2023-03-15T06:41:11;57311.16;;;-144.48;60.48
10688;BME280;5392;42.688;23.298;2023-03-15T06:43:41;57348.72;;;-144.48;58.99
10688;BME280;5392;42.688;23.298;2023-03-15T06:46:08;57348.72;;;-144.48;59.52
10688;BME280;5392;42.688;23.298;2023-03-15T06:48:35;57332.03;;;-144.48;58.28
10688;BME280;5392;42.688;23.298;2023-03-15T06:51:01;57340.38;;;-144.48;58.15
10688;BME280;5392;42.688;23.298;2023-03-15T06:53:31;57363.31;;;-144.48;58.53
10688;BME280;5392;42.688;23.298;2023-03-15T06:55:58;57367.50;;;-144.48;58.93
10688;BME280;5392;42.688;23.298;2023-03-15T06:58:24;57325.75;;;-144.48;58.25
10688;BME280;5392;42.688;23.298;2023-03-15T07:00:51;57296.53;;;-144.48;57.33
10688;BME280;5392;42.688;23.298;2023-03-15T07:03:17;57315.31;;;-144.48;57.11
10688;BME280;5392;42.688;23.298;2023-03-15T07:05:47;57325.75;;;-144.48;57.31
10688;BME280;5392;42.688;23.298;2023-03-15T07:08:18;57352.91;;;-144.48;57.59
10688;BME280;5392;42.688;23.298;2023-03-15T07:10:45;57346.63;;;-144.48;56.55
10688;BME280;5392;42.688;23.298;2023-03-15T07:13:12;57369.59;;;-144.48;56.21
10688;BME280;5392;42.688;23.298;2023-03-15T07:15:39;57338.28;;;-144.48;56.42
10688;BME280;5392;42.688;23.298;2023-03-15T07:18:06;57334.09;;;-144.48;56.90
10688;BME280;5392;42.688;23.298;2023-03-15T07:20:32;57346.63;;;-144.48;57.42
10688;BME280;5392;42.688;23.298;2023-03-15T07:23:02;57334.09;;;-144.48;57.56
10688;BME280;5392;42.688;23.298;2023-03-15T07:25:29;57334.09;;;-144.48;56.43
10688;BME280;5392;42.688;23.298;2023-03-15T07:27:56;57302.81;;;-144.48;57.00
10688;BME280;5392;42.688;23.298;2023-03-15T07:30:23;57350.81;;;-144.48;56.23
10688;BME280;5392;42.688;23.298;2023-03-15T07:32:50;57325.75;;;-144.48;57.02
10688;BME280;5392;42.688;23.298;2023-03-15T07:35:17;57292.38;;;-144.48;55.92
10688;BME280;5392;42.688;23.298;2023-03-15T07:37:44;57317.41;;;-144.48;56.31
10688;BME280;5392;42.688;23.298;2023-03-15T07:40:13;57302.81;;;-144.48;56.91
10688;BME280;5392;42.688;23.298;2023-03-15T07:42:43;57344.53;;;-144.48;56.69
10688;BME280;5392;42.688;23.298;2023-03-15T07:45:10;57317.41;;;-144.48;57.24
10688;BME280;5392;42.688;23.298;2023-03-15T07:47:36;57342.47;;;-144.48;57.77
10688;BME280;5392;42.688;23.298;2023-03-15T07:50:04;57352.91;;;-144.48;58.05
10688;BME280;5392;42.688;23.298;2023-03-15T07:52:32;57313.22;;;-144.48;57.95
10688;BME280;5392;42.688;23.298;2023-03-15T07:54:59;57321.59;;;-144.48;57.74
10688;BME280;5392;42.688;23.298;2023-03-15T07:57:25;57334.09;;;-144.48;57.07
10688;BME280;5392;42.688;23.298;2023-03-15T07:59:54;57311.16;;;-144.48;57.74
10688;BME280;5392;42.688;23.298;2023-03-15T08:02:21;57319.50;;;-144.48;57.94
10688;BME280;5392;42.688;23.298;2023-03-15T08:04:48;57359.16;;;-144.48;58.28
10688;BME280;5392;42.688;23.298;2023-03-15T08:07:16;57319.50;;;-144.48;58.60
10688;BME280;5392;42.688;23.298;2023-03-15T08:09:43;57273.56;;;-144.48;58.19
10688;BME280;5392;42.688;23.298;2023-03-15T08:12:10;57327.84;;;-144.48;58.94
10688;BME280;5392;42.688;23.298;2023-03-15T08:14:37;57340.38;;;-144.48;59.24
10688;BME280;5392;42.688;23.298;2023-03-15T08:17:04;57363.31;;;-144.48;59.71
10688;BME280;5392;42.688;23.298;2023-03-15T08:19:31;57332.03;;;-144.48;60.50
10688;BME280;5392;42.688;23.298;2023-03-15T08:21:57;57336.19;;;-144.48;59.87
10688;BME280;5392;42.688;23.298;2023-03-15T08:24:24;57342.47;;;-144.48;59.09
10688;BME280;5392;42.688;23.298;2023-03-15T08:26:52;57311.16;;;-144.48;58.08
10688;BME280;5392;42.688;23.298;2023-03-15T08:29:19;57354.97;;;-144.48;56.95
10688;BME280;5392;42.688;23.298;2023-03-15T08:31:46;57319.50;;;-144.48;56.15
10688;BME280;5392;42.688;23.298;2023-03-15T08:34:12;57323.66;;;-144.48;56.65
10688;BME280;5392;42.688;23.298;2023-03-15T08:36:39;57338.28;;;-144.48;57.52
10688;BME280;5392;42.688;23.298;2023-03-15T08:39:07;57354.97;;;-144.48;58.13
10688;BME280;5392;42.688;23.298;2023-03-15T08:41:34;57325.75;;;-144.48;58.49
10688;BME280;5392;42.688;23.298;2023-03-15T08:44:00;57336.19;;;-144.48;58.17
10688;BME280;5392;42.688;23.298;2023-03-15T08:46:27;57327.84;;;-144.48;58.05
10688;BME280;5392;42.688;23.298;2023-03-15T08:48:54;57321.59;;;-144.48;57.82
10688;BME280;5392;42.688;23.298;2023-03-15T08:51:21;57298.63;;;-144.48;57.95
10688;BME280;5392;42.688;23.298;2023-03-15T08:53:51;57365.41;;;-144.48;58.45
10688;BME280;5392;42.688;23.298;2023-03-15T08:56:18;57350.81;;;-144.48;59.06
10688;BME280;5392;42.688;23.298;2023-03-15T08:58:45;57348.72;;;-144.48;60.28
10688;BME280;5392;42.688;23.298;2023-03-15T09:01:13;57336.19;;;-144.48;60.35
10688;BME280;5392;42.688;23.298;2023-03-15T09:03:40;57336.19;;;-144.48;60.42
10688;BME280;5392;42.688;23.298;2023-03-15T09:06:08;57304.88;;;-144.48;60.42
10688;BME280;5392;42.688;23.298;2023-03-15T09:08:35;57327.84;;;-144.48;60.16
10688;BME280;5392;42.688;23.298;2023-03-15T09:11:02;57309.06;;;-144.48;60.32
10688;BME280;5392;42.688;23.298;2023-03-15T09:13:29;57315.31;;;-144.48;59.56
10688;BME280;5392;42.688;23.298;2023-03-15T09:15:56;57359.16;;;-144.48;59.33
10688;BME280;5392;42.688;23.298;2023-03-15T09:18:23;57325.75;;;-144.48;59.77
10688;BME280;5392;42.688;23.298;2023-03-15T09:20:50;57329.94;;;-144.48;60.30
10688;BME280;5392;42.688;23.298;2023-03-15T09:23:17;57338.28;;;-144.48;60.59
10688;BME280;5392;42.688;23.298;2023-03-15T09:25:43;57346.63;;;-144.48;61.17
10688;BME280;5392;42.688;23.298;2023-03-15T09:28:10;57354.97;;;-144.48;61.32
10688;BME280;5392;42.688;23.298;2023-03-15T09:30:38;57319.50;;;-144.48;61.12
10688;BME280;5392;42.688;23.298;2023-03-15T09:33:06;57361.25;;;-144.48;60.99
10688;BME280;5392;42.688;23.298;2023-03-15T09:35:33;57277.75;;;-144.48;60.53
10688;BME280;5392;42.688;23.298;2023-03-15T09:38:00;57311.16;;;-144.48;60.88
10688;BME280;5392;42.688;23.298;2023-03-15T09:40:30;57361.25;;;-144.48;60.71
10688;BME280;5392;42.688;23.298;2023-03-15T09:48:49;57334.09;;;-144.48;60.36
10688;BME280;5392;42.688;23.298;2023-03-15T09:51:27;57336.19;;;-144.48;61.20
10688;BME280;5392;42.688;23.298;2023-03-15T09:54:02;57346.63;;;-144.48;61.45
10688;BME280;5392;42.688;23.298;2023-03-15T09:57:03;57323.66;;;-144.48;61.26
10688;BME280;5392;42.688;23.298;2023-03-15T09:59:38;57336.19;;;-144.48;61.44
10688;BME280;5392;42.688;23.298;2023-03-15T10:02:27;57311.16;;;-144.48;61.42
10688;BME280;5392;42.688;23.298;2023-03-15T10:05:07;57338.28;;;-144.48;61.53
10688;BME280;5392;42.688;23.298;2023-03-15T10:07:36;57319.50;;;-144.48;61.34
10688;BME280;5392;42.688;23.298;2023-03-15T10:10:13;57346.63;;;-144.48;61.19
10688;BME280;5392;42.688;23.298;2023-03-15T10:12:45;57325.75;;;-144.48;61.34
10688;BME280;5392;42.688;23.298;2023-03-15T10:15:29;57350.81;;;-144.48;61.69
10688;BME280;5392;42.688;23.298;2023-03-15T10:18:15;57336.19;;;-144.48;61.02
10688;BME280;5392;42.688;23.298;2023-03-15T10:20:59;57361.25;;;-144.48;60.29
10688;BME280;5392;42.688;23.298;2023-03-15T10:23:44;57348.72;;;-144.48;59.67
10688;BME280;5392;42.688;23.298;2023-03-15T10:26:14;57340.38;;;-144.48;59.14
10688;BME280;5392;42.688;23.298;2023-03-15T10:28:44;57359.16;;;-144.48;59.14
10688;BME280;5392;42.688;23.298;2023-03-15T10:31:17;57315.31;;;-144.48;59.93
10688;BME280;5392;42.688;23.298;2023-03-15T10:34:02;57302.81;;;-144.48;60.25
10688;BME280;5392;42.688;23.298;2023-03-15T10:36:28;57348.72;;;-144.48;60.54
10688;BME280;5392;42.688;23.298;2023-03-15T10:38:57;57332.03;;;-144.48;60.91
10688;BME280;5392;42.688;23.298;2023-03-15T10:41:40;57327.84;;;-144.48;60.76
10688;BME280;5392;42.688;23.298;2023-03-15T10:44:31;57336.19;;;-144.48;61.02
10688;BME280;5392;42.688;23.298;2023-03-15T10:47:12;57338.28;;;-144.48;60.82
10688;BME280;5392;42.688;23.298;2023-03-15T10:49:49;57311.16;;;-144.48;61.04
10688;BME280;5392;42.688;23.298;2023-03-15T10:52:26;57323.66;;;-144.48;60.85
10688;BME280;5392;42.688;23.298;2023-03-15T10:54:53;57306.97;;;-144.48;60.82
10688;BME280;5392;42.688;23.298;2023-03-15T10:57:34;57348.72;;;-144.48;61.16
10688;BME280;5392;42.688;23.298;2023-03-15T11:03:02;57354.97;;;-144.48;61.01
10688;BME280;5392;42.688;23.298;2023-03-15T11:05:40;57344.53;;;-144.48;61.18
10688;BME280;5392;42.688;23.298;2023-03-15T11:08:14;57348.72;;;-144.48;61.21
10688;BME280;5392;42.688;23.298;2023-03-15T11:10:42;57357.06;;;-144.48;61.25
10688;BME280;5392;42.688;23.298;2023-03-15T11:15:46;57371.69;;;-144.48;60.69
10688;BME280;5392;42.688;23.298;2023-03-15T11:18:23;57350.81;;;-144.48;60.47
10688;BME280;5392;42.688;23.298;2023-03-15T11:20:52;57315.31;;;-144.48;60.30
10688;BME280;5392;42.688;23.298;2023-03-15T11:23:27;57367.50;;;-144.48;60.15
10688;BME280;5392;42.688;23.298;2023-03-15T11:25:54;57348.72;;;-144.48;60.61
10688;BME280;5392;42.688;23.298;2023-03-15T11:28:26;57342.47;;;-144.48;60.93
10688;BME280;5392;42.688;23.298;2023-03-15T11:30:54;57321.59;;;-144.48;61.13
10688;BME280;5392;42.688;23.298;2023-03-15T11:33:57;57315.31;;;-144.48;60.54
10688;BME280;5392;42.688;23.298;2023-03-15T11:36:31;57340.38;;;-144.48;60.61
10688;BME280;5392;42.688;23.298;2023-03-15T11:39:01;57348.72;;;-144.48;61.11
10688;BME280;5392;42.688;23.298;2023-03-15T11:41:40;57363.31;;;-144.48;61.09
10688;BME280;5392;42.688;23.298;2023-03-15T11:47:00;57371.69;;;-144.48;62.08
10688;BME280;5392;42.688;23.298;2023-03-15T11:49:41;57350.81;;;-144.48;62.28
10688;BME280;5392;42.688;23.298;2023-03-15T11:52:14;57346.63;;;-144.48;62.73
10688;BME280;5392;42.688;23.298;2023-03-15T11:54:43;57311.16;;;-144.48;63.23
10688;BME280;5392;42.688;23.298;2023-03-15T11:57:40;57352.91;;;-144.48;62.93
10688;BME280;5392;42.688;23.298;2023-03-15T12:03:28;57317.41;;;-144.48;62.92
10688;BME280;5392;42.688;23.298;2023-03-15T12:08:55;57329.94;;;-144.48;62.71
10688;BME280;5392;42.688;23.298;2023-03-15T12:16:29;57319.50;;;-144.48;62.67
10688;BME280;5392;42.688;23.298;2023-03-15T12:18:57;57300.72;;;-144.48;62.47
10688;BME280;5392;42.688;23.298;2023-03-15T12:21:39;57325.75;;;-144.48;63.11
10688;BME280;5392;42.688;23.298;2023-03-15T12:24:24;57336.19;;;-144.48;62.80
10688;BME280;5392;42.688;23.298;2023-03-15T12:29:43;57348.72;;;-144.48;63.90
10688;BME280;5392;42.688;23.298;2023-03-15T12:32:13;57346.63;;;-144.48;64.73
10688;BME280;5392;42.688;23.298;2023-03-15T12:37:27;57361.25;;;-144.48;65.45
10688;BME280;5392;42.688;23.298;2023-03-15T12:40:40;57377.94;;;-144.48;65.68
10688;BME280;5392;42.688;23.298;2023-03-15T12:43:11;57332.03;;;-144.48;65.45
10688;BME280;5392;42.688;23.298;2023-03-15T12:45:40;57332.03;;;-144.48;65.68
10688;BME280;5392;42.688;23.298;2023-03-15T12:55:42;57348.72;;;-144.48;64.05
10688;BME280;5392;42.688;23.298;2023-03-15T12:58:11;57323.66;;;-144.48;64.42
10688;BME280;5392;42.688;23.298;2023-03-15T13:00:41;57371.69;;;-144.48;64.42
10688;BME280;5392;42.688;23.298;2023-03-15T13:03:21;57317.41;;;-144.48;64.88
10688;BME280;5392;42.688;23.298;2023-03-15T13:08:48;57340.38;;;-144.48;64.45
10688;BME280;5392;42.688;23.298;2023-03-15T13:11:31;57298.63;;;-144.48;63.15
10688;BME280;5392;42.688;23.298;2023-03-15T13:14:32;57367.50;;;-144.48;63.18
10688;BME280;5392;42.688;23.298;2023-03-15T13:20:11;57340.38;;;-144.48;63.54
10688;BME280;5392;42.688;23.298;2023-03-15T13:31:28;57346.63;;;-144.48;62.00
10688;BME280;5392;42.688;23.298;2023-03-15T13:34:10;57365.41;;;-144.48;61.74
10688;BME280;5392;42.688;23.298;2023-03-15T13:36:40;57365.41;;;-144.48;61.26
10688;BME280;5392;42.688;23.298;2023-03-15T13:42:05;57338.28;;;-144.48;60.96
10688;BME280;5392;42.688;23.298;2023-03-15T13:44:32;57344.53;;;-144.48;61.16
10688;BME280;5392;42.688;23.298;2023-03-15T13:47:03;57306.97;;;-144.48;61.38
10688;BME280;5392;42.688;23.298;2023-03-15T13:49:32;57319.50;;;-144.48;62.16
10688;BME280;5392;42.688;23.298;2023-03-15T13:52:03;57363.31;;;-144.48;62.08
10688;BME280;5392;42.688;23.298;2023-03-15T13:54:38;57359.16;;;-144.48;62.20
10688;BME280;5392;42.688;23.298;2023-03-15T13:57:14;57334.09;;;-144.48;62.26
10688;BME280;5392;42.688;23.298;2023-03-15T14:00:11;57334.09;;;-144.48;62.29